createdAt,value
2023-05-03T00:01:21.428Z,99.90
2023-05-03T00:03:48.760Z,99.90
2023-05-03T00:06:15.822Z,99.90
2023-05-03T00:08:43.334Z,99.90
2023-05-03T00:11:10.052Z,99.90
2023-05-03T00:13:36.918Z,99.90
2023-05-03T00:16:03.533Z,99.90
2023-05-03T00:18:30.717Z,99.90
2023-05-03T00:20:58.727Z,99.90
2023-05-03T00:23:25.758Z,99.90
2023-05-03T00:25:53.100Z,99.90
2023-05-03T00:28:19.817Z,99.90
2023-05-03T00:30:46.436Z,99.90
2023-05-03T00:33:13.053Z,99.90
2023-05-03T00:35:39.595Z,99.90
2023-05-03T00:38:06.164Z,99.90
2023-05-03T00:40:32.647Z,99.90
2023-05-03T00:42:59.148Z,99.90
2023-05-03T00:45:25.841Z,99.90
2023-05-03T00:47:52.614Z,99.90
2023-05-03T00:50:19.305Z,99.90
2023-05-03T00:52:45.875Z,99.90
2023-05-03T00:55:12.573Z,99.90
2023-05-03T00:57:39.149Z,99.90
2023-05-03T01:00:07.725Z,99.90
2023-05-03T01:02:34.349Z,99.90
2023-05-03T01:05:02.479Z,99.90
2023-05-03T01:07:34.946Z,99.90
2023-05-03T01:10:08.634Z,99.90
2023-05-03T01:12:53.251Z,99.90
2023-05-03T01:15:28.578Z,99.90
2023-05-03T01:17:57.986Z,99.90
2023-05-03T01:20:25.761Z,99.90
2023-05-03T01:22:55.376Z,99.90
2023-05-03T01:25:22.045Z,99.90
2023-05-03T01:27:48.584Z,99.90
2023-05-03T01:30:15.209Z,99.90
2023-05-03T01:33:03.519Z,99.90
2023-05-03T01:35:56.286Z,99.90
2023-05-03T01:38:23.277Z,99.90
2023-05-03T01:40:51.932Z,99.90
2023-05-03T01:43:18.942Z,99.90
2023-05-03T01:45:46.006Z,99.90
2023-05-03T01:48:14.852Z,99.90
2023-05-03T01:50:41.436Z,99.90
2023-05-03T01:53:08.122Z,99.90
2023-05-03T01:55:34.662Z,99.90
2023-05-03T01:58:01.282Z,99.90
2023-05-03T02:00:27.905Z,99.90
2023-05-03T02:02:54.582Z,99.90
2023-05-03T02:05:21.357Z,99.90
2023-05-03T02:07:47.976Z,99.90
2023-05-03T02:10:15.068Z,99.90
2023-05-03T02:12:42.283Z,99.90
2023-05-03T02:15:09.116Z,99.90
2023-05-03T02:17:35.866Z,99.90
2023-05-03T02:20:03.933Z,99.90
2023-05-03T02:22:30.701Z,99.90
2023-05-03T02:24:58.247Z,99.90
2023-05-03T02:27:24.990Z,99.90
2023-05-03T02:29:51.730Z,99.90
2023-05-03T02:32:18.699Z,99.90
2023-05-03T02:34:47.107Z,99.90
2023-05-03T02:37:13.652Z,99.90
2023-05-03T02:39:40.173Z,99.90
2023-05-03T02:42:07.725Z,99.90
2023-05-03T02:44:34.275Z,99.90
2023-05-03T02:47:01.449Z,99.90
2023-05-03T02:49:28.142Z,99.90
2023-05-03T02:51:56.625Z,99.90
2023-05-03T02:54:23.308Z,99.90
2023-05-03T02:56:49.887Z,99.90
2023-05-03T02:59:16.439Z,99.90
2023-05-03T03:01:43.368Z,99.90
2023-05-03T03:04:10.057Z,99.90
2023-05-03T03:06:36.681Z,99.90
2023-05-03T03:09:04.502Z,99.90
2023-05-03T03:11:31.507Z,99.90
2023-05-03T03:13:58.066Z,99.90
2023-05-03T03:16:24.678Z,99.90
2023-05-03T03:18:51.196Z,99.90
2023-05-03T03:21:17.738Z,99.90
2023-05-03T03:23:44.360Z,99.90
2023-05-03T03:26:10.898Z,99.90
2023-05-03T03:28:37.460Z,99.90
2023-05-03T03:31:04.034Z,99.90
2023-05-03T03:33:30.704Z,99.90
2023-05-03T03:36:00.253Z,99.90
2023-05-03T03:38:26.792Z,99.90
2023-05-03T03:40:54.323Z,99.90
2023-05-03T03:43:20.948Z,99.90
2023-05-03T03:45:48.279Z,99.90
2023-05-03T03:48:14.879Z,99.90
2023-05-03T03:50:41.512Z,99.90
2023-05-03T03:53:10.912Z,99.90
2023-05-03T03:55:37.447Z,99.90
2023-05-03T03:58:04.038Z,99.90
2023-05-03T04:00:30.616Z,99.90
2023-05-03T04:02:57.267Z,99.90
2023-05-03T04:05:23.889Z,99.90
2023-05-03T04:07:50.826Z,99.90
2023-05-03T04:10:17.403Z,99.90
2023-05-03T04:12:44.026Z,99.90
2023-05-03T04:15:11.299Z,99.90
2023-05-03T04:17:37.862Z,99.90
2023-05-03T04:20:06.981Z,99.90
2023-05-03T04:22:33.608Z,99.90
2023-05-03T04:25:01.132Z,99.90
2023-05-03T04:27:28.056Z,99.90
2023-05-03T04:29:54.616Z,99.90
2023-05-03T04:32:23.295Z,99.90
2023-05-03T04:34:53.888Z,99.90
2023-05-03T04:37:22.076Z,99.90
2023-05-03T04:39:48.672Z,99.90
2023-05-03T04:42:15.311Z,99.90
2023-05-03T04:44:42.534Z,99.90
2023-05-03T04:47:09.113Z,99.90
2023-05-03T04:49:35.837Z,99.90
2023-05-03T04:52:02.520Z,99.90
2023-05-03T04:54:28.993Z,99.90
2023-05-03T04:56:55.556Z,99.90
2023-05-03T04:59:22.564Z,99.90
2023-05-03T05:01:49.206Z,99.90
2023-05-03T05:04:15.775Z,99.90
2023-05-03T05:06:42.435Z,99.90
2023-05-03T05:09:19.886Z,99.90
2023-05-03T05:11:46.529Z,99.90
2023-05-03T05:14:13.351Z,99.90
2023-05-03T05:16:40.066Z,99.90
2023-05-03T05:19:06.668Z,99.90
2023-05-03T05:21:33.955Z,99.90
2023-05-03T05:24:00.972Z,99.90
2023-05-03T05:26:27.491Z,99.90
2023-05-03T05:28:54.210Z,99.90
2023-05-03T05:31:21.018Z,99.90
2023-05-03T05:33:47.646Z,99.90
2023-05-03T05:36:14.428Z,99.90
2023-05-03T05:38:41.001Z,99.90
2023-05-03T05:41:07.984Z,99.90
2023-05-03T05:43:34.566Z,99.90
2023-05-03T05:46:01.388Z,99.90
2023-05-03T05:48:28.060Z,99.90
2023-05-03T05:50:54.628Z,99.90
2023-05-03T05:53:21.248Z,99.90
2023-05-03T05:55:48.003Z,99.90
2023-05-03T05:58:14.686Z,99.90
2023-05-03T06:00:41.950Z,99.90
2023-05-03T06:03:08.567Z,99.90
2023-05-03T06:08:22.091Z,99.90
2023-05-03T06:10:48.933Z,99.90
2023-05-03T06:13:15.604Z,99.90
2023-05-03T06:15:42.203Z,99.90
2023-05-03T06:18:08.941Z,99.90
2023-05-03T06:20:35.742Z,99.90
2023-05-03T06:23:02.387Z,99.90
2023-05-03T06:25:29.051Z,99.90
2023-05-03T06:27:55.697Z,99.90
2023-05-03T06:30:23.771Z,99.90
2023-05-03T06:32:50.552Z,99.90
2023-05-03T06:35:19.452Z,99.90
2023-05-03T06:37:46.154Z,99.90
2023-05-03T06:40:12.931Z,99.90
2023-05-03T06:42:40.063Z,99.90
2023-05-03T06:45:08.405Z,99.90
2023-05-03T06:47:35.119Z,99.90
2023-05-03T06:50:02.358Z,99.90
2023-05-03T06:52:29.229Z,99.90
2023-05-03T06:54:55.903Z,99.90
2023-05-03T06:57:22.808Z,99.90
2023-05-03T06:59:49.469Z,99.90
2023-05-03T07:02:16.124Z,99.90
2023-05-03T07:04:42.746Z,99.90
2023-05-03T07:07:09.427Z,99.90
2023-05-03T07:12:08.532Z,99.90
2023-05-03T07:14:35.089Z,99.90
2023-05-03T07:17:01.691Z,99.90
2023-05-03T07:19:28.694Z,99.90
2023-05-03T07:21:55.335Z,99.90
2023-05-03T07:24:22.026Z,99.90
2023-05-03T07:26:52.235Z,99.90
2023-05-03T07:29:18.789Z,99.90
2023-05-03T07:31:45.628Z,99.90
2023-05-03T07:34:12.352Z,99.90
2023-05-03T07:36:39.378Z,99.90
2023-05-03T07:39:06.347Z,99.90
2023-05-03T07:41:33.136Z,99.90
2023-05-03T07:44:00.088Z,99.90
2023-05-03T07:46:27.333Z,99.90
2023-05-03T07:48:54.288Z,99.90
2023-05-03T07:51:21.225Z,99.90
2023-05-03T07:53:48.068Z,99.90
2023-05-03T07:56:14.795Z,99.90
2023-05-03T07:58:42.595Z,99.90
2023-05-03T08:01:10.676Z,99.90
2023-05-03T08:03:37.544Z,99.90
2023-05-03T08:06:04.602Z,99.90
2023-05-03T08:08:32.168Z,99.90
2023-05-03T08:10:58.900Z,99.90
2023-05-03T08:13:25.677Z,99.90
2023-05-03T08:15:52.585Z,99.90
2023-05-03T08:18:21.644Z,99.90
2023-05-03T08:20:49.905Z,99.90
2023-05-03T08:23:19.214Z,99.90
2023-05-03T08:25:45.930Z,99.90
2023-05-03T08:28:15.736Z,99.90
2023-05-03T08:30:42.370Z,99.90
2023-05-03T08:33:12.014Z,99.90
2023-05-03T08:35:38.672Z,99.90
2023-05-03T08:38:05.413Z,99.90
2023-05-03T08:40:37.148Z,99.90
2023-05-03T08:43:10.002Z,99.90
2023-05-03T08:45:37.089Z,99.90
2023-05-03T08:48:04.662Z,99.90
2023-05-03T08:50:31.837Z,99.90
2023-05-03T08:53:00.370Z,99.90
2023-05-03T08:55:27.076Z,99.40
2023-05-03T08:57:53.732Z,99.70
2023-05-03T09:00:27.226Z,99.80
2023-05-03T09:02:53.872Z,99.70
2023-05-03T09:05:32.305Z,99.10
2023-05-03T09:08:09.351Z,98.50
2023-05-03T09:10:42.476Z,97.10
2023-05-03T09:13:09.817Z,96.70
2023-05-03T09:15:36.475Z,96.10
2023-05-03T09:18:09.031Z,96.40
2023-05-03T09:20:36.672Z,95.70
2023-05-03T09:23:03.493Z,94.90
2023-05-03T09:25:42.943Z,92.40
2023-05-03T09:28:09.526Z,88.10
2023-05-03T09:30:36.769Z,80.80
2023-05-03T09:33:04.343Z,76.70
2023-05-03T09:35:32.434Z,77.50
2023-05-03T09:37:59.595Z,74.90
2023-05-03T09:40:26.815Z,71.40
2023-05-03T09:43:09.140Z,69.40
2023-05-03T09:45:36.951Z,69.30
2023-05-03T09:48:04.707Z,66.70
2023-05-03T09:50:32.240Z,66.30
2023-05-03T09:53:01.195Z,64.30
2023-05-03T09:55:28.031Z,61.70
2023-05-03T09:57:55.581Z,61.60
2023-05-03T10:00:22.108Z,65.40
2023-05-03T10:02:50.450Z,63.70
2023-05-03T10:05:18.326Z,64.00
2023-05-03T10:07:45.458Z,64.30
2023-05-03T10:10:12.062Z,65.10
2023-05-03T10:12:38.704Z,62.60
2023-05-03T10:15:07.383Z,61.90
2023-05-03T10:17:48.049Z,59.40
2023-05-03T10:20:24.634Z,60.40
2023-05-03T10:23:03.297Z,60.50
2023-05-03T10:25:30.185Z,58.90
2023-05-03T10:28:03.735Z,57.90
2023-05-03T10:30:32.739Z,57.40
2023-05-03T10:33:00.281Z,57.50
2023-05-03T10:35:30.689Z,56.40
2023-05-03T10:37:58.498Z,56.20
2023-05-03T10:40:40.657Z,56.70
2023-05-03T10:43:07.451Z,57.60
2023-05-03T10:45:34.352Z,55.50
2023-05-03T10:48:13.156Z,55.90
2023-05-03T10:50:40.055Z,57.20
2023-05-03T10:53:06.775Z,56.60
2023-05-03T10:55:33.707Z,56.50
2023-05-03T10:58:01.202Z,57.20
2023-05-03T11:00:31.056Z,55.90
2023-05-03T11:03:13.242Z,55.00
2023-05-03T11:05:39.804Z,54.60
2023-05-03T11:08:09.526Z,54.10
2023-05-03T11:10:36.039Z,54.10
2023-05-03T11:13:05.457Z,54.60
2023-05-03T11:15:32.126Z,53.30
2023-05-03T11:17:58.948Z,53.40
2023-05-03T11:20:25.810Z,53.30
2023-05-03T11:22:52.393Z,53.00
2023-05-03T11:25:19.458Z,54.30
2023-05-03T11:27:48.802Z,55.30
2023-05-03T11:30:15.407Z,53.30
2023-05-03T11:32:42.635Z,55.30
2023-05-03T11:35:09.390Z,57.90
2023-05-03T11:37:36.025Z,59.00
2023-05-03T11:40:02.667Z,59.30
2023-05-03T11:42:29.280Z,57.80
2023-05-03T11:44:56.218Z,56.90
2023-05-03T11:47:22.940Z,58.10
2023-05-03T11:49:53.385Z,57.40
2023-05-03T11:52:24.884Z,59.10
2023-05-03T11:54:51.815Z,60.60
2023-05-03T11:57:18.634Z,59.70
2023-05-03T11:59:45.693Z,60.00
2023-05-03T12:02:14.057Z,58.60
2023-05-03T12:04:42.703Z,56.60
2023-05-03T12:07:11.381Z,55.70
2023-05-03T12:09:39.680Z,54.90
2023-05-03T12:12:10.013Z,55.70
2023-05-03T12:14:58.049Z,55.40
2023-05-03T12:17:44.308Z,55.20
2023-05-03T12:22:51.242Z,55.30
2023-05-03T12:25:20.256Z,54.70
2023-05-03T12:27:56.021Z,54.60
2023-05-03T12:30:34.338Z,54.40
2023-05-03T12:33:04.385Z,55.50
2023-05-03T12:35:34.004Z,58.00
2023-05-03T12:38:03.452Z,56.90
2023-05-03T12:40:34.097Z,57.10
2023-05-03T12:43:01.642Z,56.30
2023-05-03T12:45:31.583Z,57.40
2023-05-03T12:48:00.960Z,58.00
2023-05-03T12:50:31.212Z,58.20
2023-05-03T12:53:01.853Z,56.50
2023-05-03T12:55:34.639Z,55.60
2023-05-03T13:00:35.809Z,55.30
2023-05-03T13:05:35.989Z,54.00
2023-05-03T13:08:08.940Z,53.70
2023-05-03T13:10:40.622Z,53.70
2023-05-03T13:13:07.522Z,53.70
2023-05-03T13:15:35.097Z,53.80
2023-05-03T13:18:03.204Z,53.70
2023-05-03T13:20:30.919Z,53.30
2023-05-03T13:22:59.485Z,52.70
2023-05-03T13:25:26.530Z,52.80
2023-05-03T13:27:53.344Z,52.20
2023-05-03T13:30:23.301Z,52.10
2023-05-03T13:32:54.097Z,53.30
2023-05-03T13:35:20.814Z,53.00
2023-05-03T13:37:50.199Z,52.60
2023-05-03T13:40:16.933Z,52.80
2023-05-03T13:42:43.541Z,51.80
2023-05-03T13:45:10.331Z,52.20
2023-05-03T13:48:04.686Z,52.80
2023-05-03T13:50:25.552Z,54.70
2023-05-03T13:52:55.471Z,52.80
2023-05-03T13:55:24.592Z,52.80
2023-05-03T13:57:51.110Z,51.90
2023-05-03T14:00:18.263Z,50.80
2023-05-03T14:02:44.864Z,50.00
2023-05-03T14:05:11.506Z,49.90
2023-05-03T14:07:38.133Z,51.50
2023-05-03T14:10:06.181Z,50.90
2023-05-03T14:12:36.522Z,50.70
2023-05-03T14:15:03.933Z,50.80
2023-05-03T14:17:30.899Z,50.90
2023-05-03T14:20:00.636Z,49.40
2023-05-03T14:22:27.518Z,48.70
2023-05-03T14:24:54.022Z,49.30
2023-05-03T14:27:21.886Z,47.60
2023-05-03T14:29:56.457Z,47.30
2023-05-03T14:32:27.007Z,46.80
2023-05-03T14:34:53.974Z,47.00
2023-05-03T14:37:21.346Z,47.50
2023-05-03T14:39:48.179Z,47.00
2023-05-03T14:42:15.163Z,45.80
2023-05-03T14:44:44.120Z,45.80
2023-05-03T14:47:10.764Z,45.90
2023-05-03T14:49:41.371Z,46.50
2023-05-03T14:52:08.786Z,46.50
2023-05-03T14:54:36.147Z,45.20
2023-05-03T14:57:04.252Z,44.00
2023-05-03T14:59:31.612Z,44.00
2023-05-03T15:01:58.180Z,43.30
2023-05-03T15:04:25.241Z,43.40
2023-05-03T15:06:51.843Z,43.50
2023-05-03T15:09:18.656Z,43.50
2023-05-03T15:11:48.547Z,43.50
2023-05-03T15:14:17.426Z,43.40
2023-05-03T15:16:44.443Z,44.10
2023-05-03T15:19:11.020Z,44.00
2023-05-03T15:21:44.732Z,43.40
2023-05-03T15:24:11.272Z,44.20
2023-05-03T15:26:37.800Z,45.50
2023-05-03T15:29:04.343Z,44.70
2023-05-03T15:31:30.871Z,44.00
2023-05-03T15:33:57.378Z,43.60
2023-05-03T15:36:23.880Z,43.20
2023-05-03T15:38:50.555Z,44.20
2023-05-03T15:41:17.062Z,43.90
2023-05-03T15:43:44.581Z,43.90
2023-05-03T15:46:11.332Z,43.70
2023-05-03T15:48:38.255Z,43.30
2023-05-03T15:51:04.979Z,44.50
2023-05-03T15:53:34.329Z,44.30
2023-05-03T15:56:02.566Z,42.90
2023-05-03T15:58:30.411Z,41.70
2023-05-03T16:00:57.482Z,42.00
2023-05-03T16:03:24.099Z,42.80
2023-05-03T16:05:50.744Z,42.70
2023-05-03T16:08:17.342Z,43.20
2023-05-03T16:10:43.859Z,42.60
2023-05-03T16:13:11.556Z,43.00
2023-05-03T16:15:38.132Z,43.50
2023-05-03T16:18:05.049Z,43.90
2023-05-03T16:20:31.911Z,43.30
2023-05-03T16:22:58.628Z,43.10
2023-05-03T16:25:25.152Z,43.60
2023-05-03T16:27:51.669Z,44.00
2023-05-03T16:30:18.380Z,44.00
2023-05-03T16:32:45.086Z,43.70
2023-05-03T16:35:11.857Z,44.10
2023-05-03T16:37:38.368Z,43.20
2023-05-03T16:40:11.480Z,43.30
2023-05-03T16:42:38.943Z,42.50
2023-05-03T16:45:07.823Z,43.20
2023-05-03T16:47:34.996Z,43.20
2023-05-03T16:50:01.566Z,43.40
2023-05-03T16:52:28.603Z,43.50
2023-05-03T16:54:55.150Z,44.00
2023-05-03T16:57:22.042Z,43.50
2023-05-03T16:59:48.563Z,43.00
2023-05-03T17:02:15.154Z,43.40
2023-05-03T17:04:41.785Z,42.70
2023-05-03T17:07:08.278Z,42.90
2023-05-03T17:09:34.799Z,42.50
2023-05-03T17:12:03.505Z,43.00
2023-05-03T17:14:30.215Z,44.20
2023-05-03T17:16:56.813Z,43.50
2023-05-03T17:19:24.040Z,43.30
2023-05-03T17:21:50.546Z,43.60
2023-05-03T17:24:17.034Z,44.10
2023-05-03T17:26:43.541Z,43.70
2023-05-03T17:29:10.134Z,44.00
2023-05-03T17:31:36.788Z,43.30
2023-05-03T17:34:03.476Z,44.00
2023-05-03T17:36:30.194Z,44.20
2023-05-03T17:38:58.951Z,43.70
2023-05-03T17:41:29.048Z,43.90
2023-05-03T17:43:56.160Z,43.40
2023-05-03T17:46:22.974Z,43.80
2023-05-03T17:48:51.733Z,43.60
2023-05-03T17:51:18.367Z,43.30
2023-05-03T17:53:44.848Z,43.50
2023-05-03T17:56:15.902Z,43.80
2023-05-03T17:58:42.581Z,45.50
2023-05-03T18:01:10.779Z,45.00
2023-05-03T18:03:37.986Z,45.10
2023-05-03T18:06:08.554Z,44.80
2023-05-03T18:08:35.294Z,44.80
2023-05-03T18:11:02.101Z,44.80
2023-05-03T18:13:28.858Z,46.10
2023-05-03T18:15:55.880Z,46.30
2023-05-03T18:18:22.658Z,46.50
2023-05-03T18:20:59.504Z,47.70
2023-05-03T18:23:26.098Z,48.10
2023-05-03T18:25:53.078Z,49.80
2023-05-03T18:28:22.550Z,50.30
2023-05-03T18:30:51.209Z,50.70
2023-05-03T18:33:18.706Z,51.20
2023-05-03T18:35:49.316Z,51.80
2023-05-03T18:38:16.488Z,52.00
2023-05-03T18:40:43.102Z,52.60
2023-05-03T18:43:09.738Z,52.80
2023-05-03T18:45:39.973Z,53.60
2023-05-03T18:48:06.916Z,53.80
2023-05-03T18:50:33.854Z,54.50
2023-05-03T18:53:01.916Z,54.90
2023-05-03T18:55:28.605Z,55.60
2023-05-03T18:57:55.304Z,55.80
2023-05-03T19:00:21.989Z,56.20
2023-05-03T19:02:48.567Z,57.30
2023-05-03T19:05:15.405Z,57.90
2023-05-03T19:07:42.990Z,58.10
2023-05-03T19:10:10.412Z,58.70
2023-05-03T19:12:36.958Z,59.30
2023-05-03T19:15:03.661Z,60.40
2023-05-03T19:17:30.209Z,61.40
2023-05-03T19:19:56.852Z,62.10
2023-05-03T19:22:23.653Z,62.50
2023-05-03T19:24:50.184Z,63.50
2023-05-03T19:27:17.386Z,63.80
2023-05-03T19:29:44.157Z,64.60
2023-05-03T19:32:13.089Z,66.10
2023-05-03T19:34:39.626Z,66.00
2023-05-03T19:37:06.624Z,66.20
2023-05-03T19:39:38.486Z,66.90
2023-05-03T19:42:05.223Z,67.00
2023-05-03T19:44:31.956Z,67.60
2023-05-03T19:46:58.714Z,68.10
2023-05-03T19:49:25.772Z,68.40
2023-05-03T19:51:55.949Z,67.90
2023-05-03T19:54:22.914Z,68.60
2023-05-03T19:56:50.224Z,68.50
2023-05-03T19:59:16.859Z,68.60
2023-05-03T20:01:45.064Z,69.40
2023-05-03T20:04:12.091Z,69.20
2023-05-03T20:06:38.766Z,69.70
2023-05-03T20:09:05.414Z,69.80
2023-05-03T20:11:32.024Z,69.30
2023-05-03T20:13:58.620Z,69.80
2023-05-03T20:16:27.261Z,69.90
2023-05-03T20:18:53.987Z,70.40
2023-05-03T20:21:20.507Z,70.20
2023-05-03T20:23:49.170Z,70.00
2023-05-03T20:26:16.081Z,71.40
2023-05-03T20:28:42.582Z,69.80
2023-05-03T20:31:10.829Z,71.50
2023-05-03T20:33:37.488Z,72.30
2023-05-03T20:36:04.200Z,72.70
2023-05-03T20:38:30.848Z,73.50
2023-05-03T20:40:57.443Z,74.60
2023-05-03T20:43:24.074Z,76.40
2023-05-03T20:45:51.083Z,77.00
2023-05-03T20:48:17.792Z,77.30
2023-05-03T20:50:44.364Z,77.10
2023-05-03T20:53:11.018Z,79.60
2023-05-03T20:55:38.455Z,78.30
2023-05-03T20:58:05.143Z,79.20
2023-05-03T21:00:31.835Z,79.70
2023-05-03T21:02:58.435Z,80.20
2023-05-03T21:05:25.587Z,80.50
2023-05-03T21:07:52.137Z,80.40
2023-05-03T21:10:18.758Z,80.30
2023-05-03T21:12:45.410Z,81.20
2023-05-03T21:15:11.969Z,80.00
2023-05-03T21:17:38.728Z,80.40
2023-05-03T21:20:05.812Z,79.60
2023-05-03T21:22:32.759Z,80.00
2023-05-03T21:25:00.509Z,79.70
2023-05-03T21:27:27.147Z,79.30
2023-05-03T21:29:53.738Z,81.10
2023-05-03T21:32:20.320Z,80.80
2023-05-03T21:34:46.967Z,79.30
2023-05-03T21:37:13.620Z,81.10
2023-05-03T21:39:40.439Z,80.80
2023-05-03T21:42:07.060Z,80.20
2023-05-03T21:44:33.724Z,80.70
2023-05-03T21:47:00.712Z,80.50
2023-05-03T21:49:27.493Z,81.50
2023-05-03T21:51:54.172Z,85.70
2023-05-03T21:54:20.739Z,82.20
2023-05-03T21:56:48.087Z,81.70
2023-05-03T21:59:15.195Z,81.60
2023-05-03T22:01:41.850Z,82.00
2023-05-03T22:04:08.690Z,82.20
2023-05-03T22:06:35.440Z,86.40
2023-05-03T22:09:01.966Z,89.40
2023-05-03T22:11:28.768Z,91.50
2023-05-03T22:14:06.807Z,90.50
2023-05-03T22:16:34.794Z,91.40
2023-05-03T22:19:01.374Z,91.40
2023-05-03T22:21:27.925Z,91.90
2023-05-03T22:23:54.513Z,92.80
2023-05-03T22:26:21.051Z,93.60
2023-05-03T22:28:47.632Z,94.20
2023-05-03T22:31:14.334Z,95.20
2023-05-03T22:33:41.298Z,95.50
2023-05-03T22:36:08.303Z,96.70
2023-05-03T22:38:35.069Z,97.50
2023-05-03T22:41:01.679Z,98.30
2023-05-03T22:43:28.248Z,98.80
2023-05-03T22:45:54.928Z,98.70
2023-05-03T22:48:21.523Z,98.60
2023-05-03T22:50:48.181Z,98.80
2023-05-03T22:53:14.811Z,99.50
2023-05-03T22:55:41.469Z,99.50
2023-05-03T22:58:08.366Z,99.90
2023-05-03T23:00:34.881Z,99.90
2023-05-03T23:03:01.464Z,99.90
2023-05-03T23:05:28.156Z,99.90
2023-05-03T23:07:54.752Z,99.90
2023-05-03T23:10:21.328Z,99.90
2023-05-03T23:12:47.902Z,99.90
2023-05-03T23:15:14.616Z,99.90
2023-05-03T23:17:41.259Z,99.90
2023-05-03T23:20:08.625Z,99.90
2023-05-03T23:22:35.175Z,99.90
2023-05-03T23:25:01.849Z,99.90
2023-05-03T23:27:28.394Z,99.90
2023-05-03T23:29:55.571Z,99.90
2023-05-03T23:32:22.805Z,99.90
2023-05-03T23:34:49.912Z,99.90
2023-05-03T23:37:16.515Z,99.90
2023-05-03T23:39:44.264Z,99.90
2023-05-03T23:42:12.039Z,99.90
2023-05-03T23:44:53.791Z,99.90
2023-05-03T23:47:21.019Z,99.90
2023-05-03T23:49:47.652Z,99.90
2023-05-03T23:52:16.783Z,99.90
2023-05-03T23:54:43.503Z,99.90
2023-05-03T23:57:10.212Z,99.90
2023-05-03T23:59:37.738Z,99.90
